Time;durP1;ratioP1;P1;durP2;ratioP2;P2;SDS_P1;SDS_P2;PMS_P1;PMS_P2;Temp;Humidity;BMP_temperature;BMP_pressure;BME280_temperature;BME280_humidity;BME280_pressure;Samples;Min_cycle;Max_cycle;Signal;HPM_P1;HPM_P2
2023/03/16 00:00:16;;;;;;;5.05;4.20;;;0.30;99.90;;;;;;475915;250;27529;-74
2023/03/16 00:02:17;;;;;;;4.40;4.00;;;0.30;99.90;;;;;;475928;250;27572;-74
2023/03/16 00:04:20;;;;;;;6.87;4.15;;;0.30;99.90;;;;;;475970;250;27574;-74
2023/03/16 00:06:21;;;;;;;4.87;3.95;;;0.30;99.90;;;;;;475936;250;27650;-73
2023/03/16 00:08:22;;;;;;;5.18;4.57;;;0.30;99.90;;;;;;475932;250;27692;-74
2023/03/16 00:10:26;;;;;;;7.03;4.75;;;0.30;99.90;;;;;;475927;250;28019;-74
2023/03/16 00:12:25;;;;;;;5.32;4.00;;;0.30;99.90;;;;;;475614;250;28046;-74
2023/03/16 00:14:26;;;;;;;4.15;3.75;;;0.30;99.90;;;;;;475948;250;27992;-74
2023/03/16 00:16:27;;;;;;;4.62;4.10;;;0.30;99.90;;;;;;475935;250;28163;-74
2023/03/16 00:18:28;;;;;;;4.45;4.05;;;0.30;99.90;;;;;;475952;250;27554;-74
2023/03/16 00:20:30;;;;;;;4.70;3.78;;;0.30;99.90;;;;;;475959;250;27520;-74
2023/03/16 00:22:31;;;;;;;4.35;3.72;;;0.30;99.90;;;;;;475984;250;27541;-74
2023/03/16 00:24:32;;;;;;;4.20;3.60;;;0.20;99.90;;;;;;475965;250;27524;-74
2023/03/16 00:26:33;;;;;;;4.35;3.70;;;0.20;99.90;;;;;;475979;250;27532;-75
2023/03/16 00:28:36;;;;;;;4.28;3.85;;;0.20;99.90;;;;;;475955;250;27589;-75
2023/03/16 00:30:37;;;;;;;5.05;3.62;;;0.20;99.90;;;;;;475971;250;27990;-74
2023/03/16 00:32:39;;;;;;;4.10;3.55;;;0.20;99.90;;;;;;475991;250;28111;-74
2023/03/16 00:34:40;;;;;;;4.30;3.90;;;0.10;99.90;;;;;;475969;250;27958;-75
2023/03/16 00:36:41;;;;;;;4.50;3.90;;;0.10;99.90;;;;;;475971;250;27743;-74
2023/03/16 00:38:48;;;;;;;3.35;3.15;;;0.10;99.90;;;;;;475950;250;27506;-74
2023/03/16 00:40:44;;;;;;;4.40;4.00;;;0.10;99.90;;;;;;475433;250;27592;-74
2023/03/16 00:42:45;;;;;;;4.47;3.80;;;0.10;99.90;;;;;;475955;250;27549;-73
2023/03/16 00:44:46;;;;;;;5.50;4.35;;;0.10;99.90;;;;;;475965;250;27510;-74
2023/03/16 00:46:47;;;;;;;3.95;3.25;;;0.10;99.90;;;;;;475980;250;27563;-75
2023/03/16 00:48:50;;;;;;;4.70;4.30;;;0.10;99.90;;;;;;475960;250;27612;-75
2023/03/16 00:50:53;;;;;;;5.45;3.83;;;0.10;99.90;;;;;;475872;250;29215;-75
2023/03/16 00:52:52;;;;;;;4.57;4.18;;;0.10;99.90;;;;;;475689;250;28016;-73
2023/03/16 00:54:52;;;;;;;3.58;3.28;;;0.10;99.90;;;;;;475909;250;27540;-74
2023/03/16 00:56:54;;;;;;;4.15;3.80;;;0.10;99.90;;;;;;475926;250;27639;-74
2023/03/16 00:58:56;;;;;;;4.57;4.05;;;0.10;99.90;;;;;;475932;249;27560;-75
2023/03/16 01:00:58;;;;;;;4.72;4.00;;;0.00;99.90;;;;;;475875;250;27647;-74
2023/03/16 01:02:58;;;;;;;4.55;4.15;;;0.10;99.90;;;;;;475803;250;27540;-75
2023/03/16 01:05:00;;;;;;;5.60;4.00;;;0.00;99.90;;;;;;475948;250;27586;-75
2023/03/16 01:07:01;;;;;;;4.35;3.95;;;0.00;99.90;;;;;;475884;250;27977;-75
2023/03/16 01:09:04;;;;;;;4.90;3.60;;;0.00;99.90;;;;;;475948;250;28063;-73
2023/03/16 01:11:04;;;;;;;3.58;3.28;;;0.00;99.90;;;;;;475886;250;27565;-74
2023/03/16 01:13:06;;;;;;;4.32;3.95;;;-0.10;99.90;;;;;;475935;249;27549;-75
2023/03/16 01:15:07;;;;;;;6.53;3.85;;;-0.10;99.90;;;;;;475964;250;27977;-75
2023/03/16 01:17:08;;;;;;;5.47;4.87;;;-0.20;99.90;;;;;;475936;250;28016;-73
2023/03/16 01:19:11;;;;;;;4.47;3.67;;;-0.20;99.90;;;;;;475943;250;28093;-74
2023/03/16 01:21:12;;;;;;;4.30;3.90;;;-0.30;99.90;;;;;;475862;250;27641;-74
2023/03/16 01:23:12;;;;;;;4.40;4.00;;;-0.20;99.90;;;;;;475838;250;27646;-74
2023/03/16 01:25:13;;;;;;;3.70;3.40;;;-0.30;99.90;;;;;;475977;250;27573;-74
2023/03/16 01:27:14;;;;;;;3.90;3.60;;;-0.20;99.90;;;;;;475962;250;27547;-73
2023/03/16 01:29:16;;;;;;;4.00;3.60;;;-0.20;99.90;;;;;;475968;249;27560;-74
2023/03/16 01:31:17;;;;;;;4.78;4.03;;;-0.20;99.90;;;;;;475968;250;27639;-74
2023/03/16 01:33:18;;;;;;;3.83;3.53;;;-0.20;99.90;;;;;;475977;250;27659;-74
2023/03/16 01:35:20;;;;;;;4.30;3.90;;;-0.20;99.90;;;;;;475975;250;28015;-74
2023/03/16 01:37:21;;;;;;;6.03;4.20;;;-0.20;99.90;;;;;;475962;250;28194;-73
2023/03/16 01:39:22;;;;;;;4.60;4.20;;;-0.20;99.90;;;;;;475958;250;27960;-74
2023/03/16 01:41:24;;;;;;;6.28;4.35;;;-0.20;99.90;;;;;;475933;250;27653;-74
2023/03/16 01:43:25;;;;;;;5.05;4.50;;;-0.20;99.90;;;;;;475823;250;27551;-74
2023/03/16 01:45:26;;;;;;;4.45;4.05;;;-0.30;99.90;;;;;;475976;250;27649;-74
2023/03/16 01:47:27;;;;;;;3.78;3.40;;;-0.30;99.90;;;;;;475915;250;27635;-74
2023/03/16 01:49:28;;;;;;;6.78;5.03;;;-0.30;99.90;;;;;;475961;250;27591;-74
2023/03/16 01:51:30;;;;;;;5.47;4.55;;;-0.30;99.90;;;;;;475961;250;27553;-75
2023/03/16 01:53:32;;;;;;;5.40;3.97;;;-0.30;99.90;;;;;;475972;250;27558;-73
2023/03/16 01:55:32;;;;;;;5.90;4.47;;;-0.30;99.90;;;;;;475892;250;27965;-74
2023/03/16 01:57:35;;;;;;;5.93;4.97;;;-0.30;99.90;;;;;;475948;250;28027;-74
2023/03/16 01:59:35;;;;;;;5.65;4.45;;;-0.30;99.90;;;;;;475798;250;27967;-73
2023/03/16 02:01:36;;;;;;;5.80;4.22;;;-0.20;99.90;;;;;;475933;250;27579;-74
2023/03/16 02:03:37;;;;;;;6.35;4.62;;;-0.20;99.90;;;;;;475965;250;27624;-74
2023/03/16 02:05:38;;;;;;;5.72;4.82;;;-0.20;99.90;;;;;;475975;250;27519;-73
2023/03/16 02:07:41;;;;;;;5.18;4.45;;;-0.20;99.90;;;;;;475977;250;27664;-74
2023/03/16 02:09:41;;;;;;;7.35;5.97;;;-0.20;99.90;;;;;;475778;250;27551;-74
2023/03/16 02:11:42;;;;;;;7.20;5.70;;;-0.20;99.90;;;;;;475993;250;27513;-74
2023/03/16 02:13:43;;;;;;;5.85;5.12;;;-0.20;99.90;;;;;;475970;250;27582;-74
2023/03/16 02:15:45;;;;;;;5.85;5.25;;;-0.10;99.90;;;;;;475973;249;27989;-74
2023/03/16 02:17:46;;;;;;;5.70;5.10;;;-0.20;99.90;;;;;;475973;250;28080;-74
2023/03/16 02:19:47;;;;;;;9.50;6.62;;;-0.10;99.90;;;;;;475981;250;28234;-75
2023/03/16 02:21:48;;;;;;;6.10;5.28;;;-0.10;99.90;;;;;;475832;250;27504;-74
2023/03/16 02:23:50;;;;;;;6.22;5.62;;;-0.10;99.90;;;;;;476003;250;27681;-74
2023/03/16 02:25:51;;;;;;;7.87;5.32;;;0.00;99.90;;;;;;475781;250;27501;-74
2023/03/16 02:27:52;;;;;;;11.02;6.72;;;0.00;99.90;;;;;;475965;250;27575;-75
2023/03/16 02:29:53;;;;;;;7.12;5.87;;;0.00;99.90;;;;;;475983;250;27909;-74
2023/03/16 02:31:55;;;;;;;8.25;5.95;;;0.00;99.90;;;;;;475984;250;27611;-75
2023/03/16 02:33:56;;;;;;;7.65;6.22;;;0.10;99.90;;;;;;475959;250;27572;-74
2023/03/16 02:35:57;;;;;;;6.50;5.37;;;0.10;99.90;;;;;;475944;250;27592;-75
2023/03/16 02:37:58;;;;;;;6.10;5.45;;;0.10;99.90;;;;;;475938;249;28019;-75
2023/03/16 02:40:00;;;;;;;8.10;5.82;;;0.10;99.90;;;;;;476131;250;28033;-75
2023/03/16 02:42:01;;;;;;;6.10;5.37;;;0.10;99.90;;;;;;476106;250;28024;-75
2023/03/16 02:44:03;;;;;;;10.57;5.53;;;0.10;99.90;;;;;;476043;250;28007;-74
2023/03/16 02:46:04;;;;;;;6.60;4.70;;;0.20;99.90;;;;;;476060;250;29245;-74
2023/03/16 02:48:05;;;;;;;9.68;6.93;;;0.10;99.90;;;;;;476191;250;28128;-74
2023/03/16 02:50:06;;;;;;;8.32;6.15;;;0.20;99.90;;;;;;475698;250;27560;-74
2023/03/16 02:52:08;;;;;;;8.20;6.60;;;0.20;99.90;;;;;;475999;250;27641;-74
2023/03/16 02:54:09;;;;;;;7.20;6.07;;;0.20;99.90;;;;;;476012;250;27601;-74
2023/03/16 02:56:11;;;;;;;7.28;5.45;;;0.30;99.90;;;;;;475996;250;28009;-74
2023/03/16 02:58:12;;;;;;;6.60;5.32;;;0.30;99.90;;;;;;476017;250;28120;-74
2023/03/16 03:00:17;;;;;;;7.30;5.55;;;0.30;99.90;;;;;;475965;250;28055;-75
2023/03/16 03:02:17;;;;;;;6.53;5.78;;;0.30;99.90;;;;;;475773;250;27500;-74
2023/03/16 03:04:22;;;;;;;11.48;6.70;;;0.20;99.90;;;;;;475968;250;27551;-74
2023/03/16 03:06:20;;;;;;;6.72;5.93;;;0.30;99.90;;;;;;475614;250;28870;-73
2023/03/16 03:08:22;;;;;;;8.18;6.93;;;0.30;99.90;;;;;;475956;250;28107;-74
2023/03/16 03:10:22;;;;;;;6.45;5.85;;;0.30;99.90;;;;;;475916;250;28015;-73
2023/03/16 03:12:24;;;;;;;7.18;6.28;;;0.30;99.90;;;;;;475908;250;28055;-75
2023/03/16 03:14:27;;;;;;;7.72;6.05;;;0.30;99.90;;;;;;475948;250;27687;-75
2023/03/16 03:16:26;;;;;;;9.85;7.45;;;0.30;99.90;;;;;;475776;250;27645;-74
2023/03/16 03:18:27;;;;;;;6.85;5.40;;;0.40;99.90;;;;;;475931;249;27545;-75
2023/03/16 03:20:29;;;;;;;8.18;6.97;;;0.40;99.90;;;;;;475944;250;27564;-74
2023/03/16 03:22:30;;;;;;;6.90;5.37;;;0.40;99.90;;;;;;475939;250;27589;-75
2023/03/16 03:24:31;;;;;;;6.30;5.70;;;0.40;99.90;;;;;;475936;250;27555;-74
2023/03/16 03:26:32;;;;;;;5.90;5.07;;;0.40;99.90;;;;;;475921;250;27587;-75
2023/03/16 03:28:34;;;;;;;6.20;5.18;;;0.40;99.90;;;;;;475954;250;27624;-74
2023/03/16 03:30:35;;;;;;;6.45;5.57;;;0.40;99.90;;;;;;475947;250;27645;-74
2023/03/16 03:32:36;;;;;;;8.07;5.50;;;0.40;99.90;;;;;;475956;250;27631;-75
2023/03/16 03:34:37;;;;;;;7.43;5.28;;;0.40;99.90;;;;;;475904;250;28045;-73
2023/03/16 03:36:40;;;;;;;6.05;5.45;;;0.40;99.90;;;;;;475905;250;28710;-74
2023/03/16 03:38:40;;;;;;;6.43;5.30;;;0.40;99.90;;;;;;475882;250;27975;-75
2023/03/16 03:40:41;;;;;;;6.47;5.20;;;0.40;99.90;;;;;;475961;250;28136;-74
2023/03/16 03:42:42;;;;;;;12.35;6.90;;;0.40;99.90;;;;;;475957;250;27600;-75
2023/03/16 03:44:44;;;;;;;6.57;4.93;;;0.50;99.90;;;;;;475908;250;27576;-74
2023/03/16 03:46:45;;;;;;;6.53;5.53;;;0.50;99.90;;;;;;475954;250;27549;-75
2023/03/16 03:48:46;;;;;;;5.43;4.93;;;0.40;99.90;;;;;;475930;250;27615;-75
2023/03/16 03:50:47;;;;;;;8.32;5.95;;;0.40;99.90;;;;;;475840;250;27655;-74
2023/03/16 03:52:49;;;;;;;7.47;5.05;;;0.40;99.90;;;;;;475928;250;27529;-74
2023/03/16 03:54:50;;;;;;;6.37;4.95;;;0.50;99.90;;;;;;475958;250;27916;-74
2023/03/16 03:56:51;;;;;;;8.25;5.35;;;0.60;99.90;;;;;;475982;250;27605;-74
2023/03/16 03:58:52;;;;;;;8.48;5.18;;;0.60;99.90;;;;;;475978;250;27654;-75
2023/03/16 04:00:54;;;;;;;6.45;4.55;;;0.70;99.90;;;;;;476003;250;27548;-74
2023/03/16 04:02:55;;;;;;;4.97;4.47;;;0.70;99.90;;;;;;475990;250;27965;-74
2023/03/16 04:04:56;;;;;;;6.80;4.50;;;0.70;99.90;;;;;;475961;250;28017;-75
2023/03/16 04:06:57;;;;;;;6.93;5.15;;;0.70;99.90;;;;;;475966;250;27983;-74
2023/03/16 04:08:59;;;;;;;9.18;4.90;;;0.80;99.90;;;;;;475963;250;28075;-75
2023/03/16 04:11:00;;;;;;;4.40;4.00;;;0.80;99.90;;;;;;475904;250;27548;-75
2023/03/16 04:13:01;;;;;;;3.95;3.55;;;0.80;99.90;;;;;;475958;250;27524;-75
2023/03/16 04:15:02;;;;;;;6.28;4.28;;;0.70;99.90;;;;;;475930;250;27553;-74
2023/03/16 04:17:04;;;;;;;5.72;4.20;;;0.80;99.90;;;;;;475945;249;27540;-75
2023/03/16 04:19:05;;;;;;;9.18;3.78;;;0.90;99.90;;;;;;475919;250;27524;-74
2023/03/16 04:21:06;;;;;;;4.78;4.28;;;0.90;99.90;;;;;;475974;250;27563;-74
2023/03/16 04:23:08;;;;;;;4.85;4.45;;;0.90;99.90;;;;;;475932;250;27527;-75
2023/03/16 04:25:09;;;;;;;5.30;4.10;;;0.90;99.90;;;;;;475940;250;27576;-75
2023/03/16 04:27:13;;;;;;;6.05;4.57;;;0.90;99.90;;;;;;475909;250;27573;-74
2023/03/16 04:29:16;;;;;;;3.80;3.50;;;0.90;99.90;;;;;;475869;250;27553;-75
2023/03/16 04:31:15;;;;;;;4.90;4.43;;;0.90;99.90;;;;;;475642;250;27598;-75
2023/03/16 04:33:16;;;;;;;4.25;3.85;;;1.00;99.90;;;;;;475907;250;27570;-74
2023/03/16 04:35:18;;;;;;;5.68;4.40;;;1.00;99.90;;;;;;475862;250;27587;-75
2023/03/16 04:37:19;;;;;;;4.70;4.05;;;1.00;99.90;;;;;;475915;250;28015;-75
2023/03/16 04:39:20;;;;;;;7.00;4.37;;;1.00;99.90;;;;;;475899;250;28793;-74
2023/03/16 04:41:22;;;;;;;3.90;3.55;;;1.00;99.90;;;;;;475927;250;27975;-75
2023/03/16 04:43:23;;;;;;;8.48;5.50;;;1.00;99.90;;;;;;475891;250;28150;-75
2023/03/16 04:45:24;;;;;;;7.97;4.85;;;1.00;99.90;;;;;;475874;250;27509;-75
2023/03/16 04:47:25;;;;;;;6.25;4.30;;;1.20;99.90;;;;;;475828;250;27631;-75
2023/03/16 04:49:26;;;;;;;8.05;4.03;;;1.20;99.90;;;;;;475914;250;27572;-74
2023/03/16 04:51:28;;;;;;;3.83;3.53;;;1.10;99.90;;;;;;475932;250;27510;-76
2023/03/16 04:53:30;;;;;;;8.23;5.07;;;1.10;99.90;;;;;;475935;250;27578;-74
2023/03/16 04:55:30;;;;;;;5.10;4.43;;;1.10;99.90;;;;;;475703;250;27595;-75
2023/03/16 04:57:31;;;;;;;5.10;4.57;;;1.20;99.90;;;;;;475904;250;27578;-75
2023/03/16 04:59:33;;;;;;;4.32;3.92;;;1.10;99.90;;;;;;475951;250;27967;-74
2023/03/16 05:01:34;;;;;;;5.60;3.83;;;1.10;99.90;;;;;;475962;250;27536;-74
2023/03/16 05:03:35;;;;;;;5.18;4.43;;;1.10;99.90;;;;;;475966;250;27569;-74
2023/03/16 05:05:37;;;;;;;4.40;3.95;;;1.00;99.90;;;;;;475963;250;27990;-75
2023/03/16 05:07:38;;;;;;;7.10;4.15;;;1.10;99.90;;;;;;475965;250;28044;-74
2023/03/16 05:09:40;;;;;;;5.40;4.25;;;1.10;99.90;;;;;;475983;250;28079;-74
2023/03/16 05:11:40;;;;;;;4.60;3.80;;;1.10;99.90;;;;;;475923;250;27983;-75
2023/03/16 05:13:41;;;;;;;4.93;3.83;;;1.10;99.90;;;;;;475992;250;27596;-74
2023/03/16 05:15:43;;;;;;;5.40;4.30;;;1.10;99.90;;;;;;475985;250;27508;-74
2023/03/16 05:17:45;;;;;;;5.47;4.62;;;1.10;99.90;;;;;;475964;250;27555;-75
2023/03/16 05:19:45;;;;;;;3.92;3.62;;;1.10;99.90;;;;;;475803;250;27621;-76
2023/03/16 05:21:46;;;;;;;6.70;4.95;;;1.10;99.90;;;;;;475996;250;27556;-74
2023/03/16 05:23:48;;;;;;;7.53;5.03;;;1.10;99.90;;;;;;475969;250;27562;-75
2023/03/16 05:25:49;;;;;;;4.30;3.90;;;1.10;99.90;;;;;;475961;250;27606;-76
2023/03/16 05:27:50;;;;;;;6.72;4.65;;;1.10;99.90;;;;;;475916;250;27535;-75
2023/03/16 05:29:51;;;;;;;5.10;4.22;;;1.00;99.90;;;;;;475952;250;27573;-74
2023/03/16 05:31:53;;;;;;;5.00;4.20;;;1.00;99.90;;;;;;475949;250;27518;-75
2023/03/16 05:33:55;;;;;;;6.12;4.75;;;1.00;99.90;;;;;;475992;250;28117;-74
2023/03/16 05:35:56;;;;;;;10.10;4.57;;;0.90;99.90;;;;;;475976;250;28091;-76
2023/03/16 05:37:56;;;;;;;6.80;4.55;;;1.00;99.90;;;;;;475883;250;28156;-74
2023/03/16 05:39:58;;;;;;;4.82;4.43;;;0.90;99.90;;;;;;475940;250;27897;-74
2023/03/16 05:41:59;;;;;;;7.22;5.18;;;0.90;99.90;;;;;;476013;250;27506;-74
2023/03/16 05:44:00;;;;;;;4.95;3.80;;;0.90;99.90;;;;;;475976;250;27545;-74
2023/03/16 05:46:02;;;;;;;6.95;4.75;;;0.90;99.90;;;;;;475995;250;27512;-75
2023/03/16 05:48:04;;;;;;;5.07;4.12;;;0.90;99.90;;;;;;475957;250;27543;-74
2023/03/16 05:50:04;;;;;;;4.60;4.15;;;0.90;99.90;;;;;;475798;250;27547;-76
2023/03/16 05:52:05;;;;;;;5.32;4.70;;;0.90;99.90;;;;;;475983;250;27592;-75
2023/03/16 05:54:06;;;;;;;6.28;4.95;;;0.90;99.90;;;;;;475955;250;27647;-74
2023/03/16 05:56:08;;;;;;;4.60;4.15;;;0.80;99.90;;;;;;475959;250;27553;-74
2023/03/16 05:58:10;;;;;;;6.35;4.75;;;0.80;99.90;;;;;;475951;250;27662;-74
2023/03/16 06:00:14;;;;;;;9.68;5.10;;;0.80;99.90;;;;;;475799;250;28121;-75
2023/03/16 06:02:11;;;;;;;4.65;4.30;;;0.90;99.90;;;;;;475539;250;28259;-75
2023/03/16 06:04:13;;;;;;;9.02;5.00;;;0.90;99.90;;;;;;475957;250;28041;-74
2023/03/16 06:06:14;;;;;;;5.40;3.60;;;0.90;99.90;;;;;;475969;250;27979;-74
2023/03/16 06:08:15;;;;;;;6.12;3.37;;;0.90;99.90;;;;;;475934;250;27650;-75
2023/03/16 06:10:16;;;;;;;5.22;3.83;;;0.90;99.90;;;;;;475972;250;27666;-74
2023/03/16 06:12:18;;;;;;;4.30;3.87;;;0.90;99.90;;;;;;475974;250;27627;-74
2023/03/16 06:14:19;;;;;;;4.53;4.12;;;0.90;99.90;;;;;;475965;250;27545;-75
2023/03/16 06:16:20;;;;;;;4.18;3.78;;;0.90;99.90;;;;;;475973;250;27505;-76
2023/03/16 06:18:21;;;;;;;5.70;3.75;;;0.90;99.90;;;;;;475943;250;27640;-75
2023/03/16 06:20:23;;;;;;;4.60;3.80;;;0.90;99.90;;;;;;475962;250;27923;-75
2023/03/16 06:22:24;;;;;;;4.47;3.70;;;0.90;99.90;;;;;;475986;250;27541;-75
2023/03/16 06:24:25;;;;;;;4.60;3.83;;;0.90;99.90;;;;;;475958;250;27556;-74
2023/03/16 06:26:26;;;;;;;4.35;3.75;;;0.90;99.90;;;;;;475962;250;27552;-74
2023/03/16 06:28:28;;;;;;;6.03;4.20;;;0.90;99.90;;;;;;475939;250;28026;-75
2023/03/16 06:30:30;;;;;;;3.83;3.53;;;0.90;99.90;;;;;;475985;250;28055;-74
2023/03/16 06:32:30;;;;;;;5.10;4.10;;;1.00;99.90;;;;;;475985;250;27599;-76
2023/03/16 06:34:33;;;;;;;3.90;3.60;;;1.00;99.90;;;;;;475955;250;28123;-74
2023/03/16 06:36:33;;;;;;;4.97;3.10;;;1.00;99.90;;;;;;475744;250;27594;-75
2023/03/16 06:38:34;;;;;;;3.95;3.65;;;1.00;99.90;;;;;;475961;250;27650;-76
2023/03/16 06:40:35;;;;;;;4.78;4.05;;;1.00;99.90;;;;;;475962;250;27651;-74
2023/03/16 06:42:36;;;;;;;5.45;3.80;;;1.10;99.90;;;;;;475962;250;27552;-75
2023/03/16 06:44:38;;;;;;;4.97;3.55;;;1.10;99.90;;;;;;475969;250;27555;-75
2023/03/16 06:46:39;;;;;;;4.55;3.80;;;1.10;99.90;;;;;;475915;250;27544;-75
2023/03/16 06:48:40;;;;;;;4.65;4.10;;;1.20;99.90;;;;;;475859;250;27529;-75
2023/03/16 06:50:42;;;;;;;5.47;4.00;;;1.20;99.90;;;;;;475922;250;27686;-76
2023/03/16 06:52:43;;;;;;;3.87;3.47;;;1.20;99.90;;;;;;475897;250;27596;-75
2023/03/16 06:54:44;;;;;;;5.95;4.60;;;1.30;99.90;;;;;;475893;250;27547;-75
2023/03/16 06:56:45;;;;;;;4.35;3.95;;;1.30;99.90;;;;;;475970;250;28089;-75
2023/03/16 06:58:47;;;;;;;6.97;4.97;;;1.40;99.90;;;;;;475975;250;27969;-75
2023/03/16 07:00:48;;;;;;;4.30;3.87;;;1.40;99.90;;;;;;475952;250;28035;-75
2023/03/16 07:02:49;;;;;;;5.68;4.40;;;1.40;99.90;;;;;;475930;250;28067;-75
2023/03/16 07:04:50;;;;;;;7.90;5.45;;;1.50;99.90;;;;;;475946;250;27556;-75
2023/03/16 07:06:52;;;;;;;5.40;4.55;;;1.50;99.90;;;;;;475967;250;27545;-75
2023/03/16 07:08:53;;;;;;;5.28;3.75;;;1.60;99.90;;;;;;475952;250;27608;-75
2023/03/16 07:10:54;;;;;;;4.30;3.83;;;1.70;99.90;;;;;;475913;250;27577;-75
2023/03/16 07:12:55;;;;;;;4.93;3.80;;;1.70;99.90;;;;;;475769;250;27508;-76
2023/03/16 07:14:57;;;;;;;4.55;3.78;;;1.80;99.90;;;;;;475780;249;27597;-76
2023/03/16 07:17:00;;;;;;;7.10;3.70;;;1.90;99.90;;;;;;475819;250;27589;-75
2023/03/16 07:19:01;;;;;;;5.35;4.20;;;2.00;99.90;;;;;;475764;250;27563;-75
2023/03/16 07:21:02;;;;;;;3.08;2.87;;;2.00;99.90;;;;;;475790;250;27602;-75
2023/03/16 07:23:03;;;;;;;4.85;3.30;;;2.20;99.90;;;;;;475894;250;27969;-75
2023/03/16 07:25:04;;;;;;;3.08;2.80;;;2.20;99.90;;;;;;475940;250;28055;-75
2023/03/16 07:27:06;;;;;;;3.12;2.40;;;2.30;99.90;;;;;;475987;250;28771;-76
2023/03/16 07:29:08;;;;;;;3.15;2.53;;;2.50;99.90;;;;;;475965;250;27568;-75
2023/03/16 07:31:08;;;;;;;2.45;2.25;;;2.70;99.90;;;;;;475920;250;27562;-75
2023/03/16 07:33:10;;;;;;;2.60;2.37;;;2.80;99.90;;;;;;475939;250;27609;-75
2023/03/16 07:35:11;;;;;;;2.50;2.30;;;3.00;99.90;;;;;;475925;250;27675;-75
2023/03/16 07:37:12;;;;;;;3.67;2.37;;;3.00;99.90;;;;;;475943;250;27548;-75
2023/03/16 07:39:16;;;;;;;2.35;2.15;;;3.10;99.90;;;;;;475996;250;27551;-75
2023/03/16 07:41:15;;;;;;;2.20;2.10;;;3.20;99.90;;;;;;475694;250;27575;-75
2023/03/16 07:43:16;;;;;;;3.75;2.30;;;3.30;99.90;;;;;;475987;250;27639;-75
2023/03/16 07:45:18;;;;;;;2.25;2.05;;;3.40;99.90;;;;;;475998;250;27513;-75
2023/03/16 07:47:20;;;;;;;2.80;2.60;;;3.60;99.90;;;;;;475980;250;27554;-75
2023/03/16 07:49:21;;;;;;;2.40;2.20;;;3.70;99.90;;;;;;475987;250;27652;-75
2023/03/16 07:51:23;;;;;;;3.58;1.90;;;3.90;99.90;;;;;;476003;250;27587;-75
2023/03/16 07:53:24;;;;;;;2.65;2.10;;;4.00;99.90;;;;;;475984;250;27962;-76
2023/03/16 07:55:26;;;;;;;3.35;2.20;;;4.10;99.90;;;;;;475972;250;27634;-76
2023/03/16 07:57:28;;;;;;;2.92;1.80;;;4.20;99.90;;;;;;475961;250;27552;-76
2023/03/16 07:59:30;;;;;;;3.92;2.22;;;4.30;99.90;;;;;;475954;250;27647;-76
2023/03/16 08:01:33;;;;;;;2.83;2.15;;;4.30;99.90;;;;;;475936;250;27552;-76
2023/03/16 08:03:33;;;;;;;2.95;2.30;;;4.40;99.90;;;;;;475872;250;27568;-76
2023/03/16 08:05:35;;;;;;;5.47;1.70;;;4.40;99.90;;;;;;475940;250;28081;-76
2023/03/16 08:07:37;;;;;;;2.33;1.85;;;4.40;99.90;;;;;;475960;250;27591;-76
2023/03/16 08:09:39;;;;;;;2.28;2.03;;;4.40;99.90;;;;;;475954;250;27552;-76
2023/03/16 08:11:40;;;;;;;3.75;2.17;;;4.50;99.90;;;;;;475943;250;27547;-75
2023/03/16 08:13:43;;;;;;;4.12;2.75;;;4.60;99.90;;;;;;475964;250;27613;-75
2023/03/16 08:15:43;;;;;;;1.85;1.70;;;4.70;99.90;;;;;;475753;250;27961;-76
2023/03/16 08:17:45;;;;;;;3.20;1.98;;;4.70;99.90;;;;;;475950;250;27559;-76
2023/03/16 08:19:46;;;;;;;2.00;1.90;;;4.90;99.90;;;;;;475956;250;28050;-75
2023/03/16 08:21:48;;;;;;;2.28;2.03;;;5.10;99.90;;;;;;475973;250;27636;-75
2023/03/16 08:23:49;;;;;;;1.75;1.65;;;5.10;99.90;;;;;;475925;250;27523;-76
2023/03/16 08:25:50;;;;;;;3.08;1.60;;;5.20;99.90;;;;;;475769;250;27564;-76
2023/03/16 08:27:52;;;;;;;4.90;2.17;;;5.40;99.90;;;;;;475966;250;28101;-76
2023/03/16 08:29:53;;;;;;;8.70;2.00;;;5.40;99.90;;;;;;476013;250;28050;-77
2023/03/16 08:31:55;;;;;;;1.83;1.70;;;5.60;99.90;;;;;;475981;250;27561;-76
2023/03/16 08:33:55;;;;;;;1.90;1.75;;;5.70;99.90;;;;;;475962;250;27536;-76
2023/03/16 08:35:57;;;;;;;1.73;1.42;;;5.70;99.90;;;;;;476004;250;27644;-76
2023/03/16 08:37:59;;;;;;;4.37;1.65;;;5.80;99.90;;;;;;476005;250;27929;-75
2023/03/16 08:40:01;;;;;;;3.12;1.40;;;5.80;99.90;;;;;;476004;250;27533;-76
2023/03/16 08:42:02;;;;;;;2.53;1.60;;;5.80;99.90;;;;;;476004;250;28024;-75
2023/03/16 08:44:03;;;;;;;2.12;1.65;;;5.80;99.90;;;;;;475991;250;27975;-76
2023/03/16 08:46:05;;;;;;;2.40;1.50;;;5.90;99.90;;;;;;475970;250;27667;-76
2023/03/16 08:48:06;;;;;;;2.10;1.70;;;5.90;99.90;;;;;;476006;250;27537;-76
2023/03/16 08:50:07;;;;;;;3.17;1.87;;;5.90;99.90;;;;;;476017;250;27546;-76
2023/03/16 08:52:12;;;;;;;2.10;1.52;;;5.90;99.90;;;;;;475957;250;27685;-76
2023/03/16 08:54:10;;;;;;;2.35;1.50;;;5.90;99.90;;;;;;475565;250;27513;-76
2023/03/16 08:56:11;;;;;;;3.83;1.65;;;5.90;99.90;;;;;;475973;250;28031;-76
2023/03/16 08:58:12;;;;;;;2.05;1.60;;;5.90;99.90;;;;;;475947;250;28093;-75
2023/03/16 09:00:14;;;;;;;1.40;1.30;;;6.00;99.90;;;;;;475952;250;27512;-76
2023/03/16 09:02:15;;;;;;;4.12;1.50;;;6.00;99.90;;;;;;475998;250;27555;-76
2023/03/16 09:04:17;;;;;;;2.57;1.90;;;6.10;99.90;;;;;;475990;250;27545;-76
2023/03/16 09:06:17;;;;;;;3.87;1.80;;;6.10;99.90;;;;;;475836;250;29036;-76
2023/03/16 09:08:18;;;;;;;1.93;1.47;;;6.20;99.90;;;;;;476015;250;27570;-75
2023/03/16 09:10:21;;;;;;;3.05;2.00;;;6.10;99.90;;;;;;475971;250;28879;-76
2023/03/16 09:12:22;;;;;;;2.50;1.60;;;6.10;99.90;;;;;;475857;250;28027;-75
2023/03/16 09:14:22;;;;;;;1.60;1.50;;;6.00;99.90;;;;;;475929;250;27613;-76
2023/03/16 09:16:24;;;;;;;1.87;1.60;;;6.00;99.90;;;;;;475793;250;28931;-75
2023/03/16 09:18:25;;;;;;;3.25;1.90;;;6.00;99.90;;;;;;475938;250;28926;-76
2023/03/16 09:20:26;;;;;;;3.55;1.77;;;6.10;99.90;;;;;;475848;250;27511;-76
2023/03/16 09:22:27;;;;;;;1.95;1.33;;;6.20;99.90;;;;;;475842;250;27552;-75
2023/03/16 09:24:29;;;;;;;1.87;1.40;;;6.20;99.90;;;;;;475917;250;27585;-76
2023/03/16 09:26:30;;;;;;;2.00;1.70;;;6.30;99.90;;;;;;475980;250;29360;-75
2023/03/16 09:28:31;;;;;;;1.60;1.50;;;6.40;99.90;;;;;;473957;249;41625;-75
2023/03/16 09:30:33;;;;;;;1.70;1.60;;;6.40;99.90;;;;;;475995;250;29408;-76
2023/03/16 09:32:36;;;;;;;2.78;1.98;;;6.40;99.90;;;;;;475966;250;29367;-75
2023/03/16 09:34:35;;;;;;;3.75;1.90;;;6.40;99.90;;;;;;475840;250;27506;-76
2023/03/16 09:36:36;;;;;;;1.90;1.80;;;6.40;99.90;;;;;;476002;250;27654;-75
2023/03/16 09:38:38;;;;;;;1.50;1.40;;;6.50;99.90;;;;;;476012;250;27936;-76
2023/03/16 09:40:40;;;;;;;2.83;1.53;;;6.50;99.90;;;;;;475976;250;28993;-76
2023/03/16 09:42:40;;;;;;;2.20;1.60;;;6.50;99.90;;;;;;475863;250;27884;-75
2023/03/16 09:44:41;;;;;;;3.70;1.73;;;6.60;99.90;;;;;;475940;250;28946;-76
2023/03/16 09:46:42;;;;;;;7.03;3.60;;;6.70;99.90;;;;;;475930;250;28158;-76
2023/03/16 09:48:43;;;;;;;10.13;5.77;;;6.80;99.90;;;;;;476004;250;28151;-75
2023/03/16 09:50:45;;;;;;;4.70;3.00;;;6.80;99.90;;;;;;476013;250;28399;-76
2023/03/16 09:52:46;;;;;;;3.13;2.17;;;6.90;99.90;;;;;;476001;250;28018;-76
2023/03/16 09:54:48;;;;;;;3.67;2.27;;;7.00;99.90;;;;;;475966;250;29374;-76
2023/03/16 09:56:49;;;;;;;1.70;1.57;;;7.00;99.90;;;;;;475988;250;28715;-76
2023/03/16 09:58:50;;;;;;;3.00;1.80;;;7.20;99.90;;;;;;475978;250;27895;-75
2023/03/16 10:00:51;;;;;;;1.60;1.50;;;7.50;99.90;;;;;;476001;250;27963;-76
2023/03/16 10:02:52;;;;;;;3.37;2.13;;;7.70;99.90;;;;;;475969;250;27747;-75
2023/03/16 10:04:54;;;;;;;1.87;1.63;;;7.80;99.90;;;;;;475972;250;28065;-76
2023/03/16 10:06:55;;;;;;;2.57;2.13;;;8.00;99.90;;;;;;475987;250;28028;-76
2023/03/16 10:08:57;;;;;;;1.50;1.40;;;8.10;99.90;;;;;;476007;250;27751;-75
2023/03/16 10:10:58;;;;;;;1.77;1.30;;;8.30;99.00;;;;;;475926;250;27902;-76
2023/03/16 10:12:59;;;;;;;6.13;1.83;;;8.40;99.70;;;;;;475984;250;27998;-76
2023/03/16 10:15:00;;;;;;;2.60;1.87;;;8.40;96.10;;;;;;475985;250;28126;-75
2023/03/16 10:17:02;;;;;;;2.30;1.70;;;8.40;96.10;;;;;;475996;250;27966;-76
2023/03/16 10:19:03;;;;;;;1.70;1.40;;;8.40;97.40;;;;;;475950;250;28287;-76
2023/03/16 10:21:04;;;;;;;4.20;1.53;;;8.50;96.30;;;;;;475952;250;28706;-76
2023/03/16 10:23:05;;;;;;;1.60;1.50;;;8.60;98.10;;;;;;476007;250;28357;-76
2023/03/16 10:25:06;;;;;;;1.87;1.37;;;8.80;98.30;;;;;;476009;250;28251;-75
2023/03/16 10:27:08;;;;;;;1.60;1.50;;;8.90;96.50;;;;;;475999;250;28189;-76
2023/03/16 10:29:11;;;;;;;2.60;1.70;;;9.00;96.40;;;;;;475990;250;27865;-76
2023/03/16 10:31:10;;;;;;;2.00;1.40;;;9.10;96.50;;;;;;475864;250;28066;-75
2023/03/16 10:33:12;;;;;;;2.30;1.70;;;9.00;94.10;;;;;;475983;250;28094;-76
2023/03/16 10:35:14;;;;;;;1.77;1.67;;;9.00;93.60;;;;;;475981;250;28169;-76
2023/03/16 10:37:14;;;;;;;1.80;1.30;;;9.00;92.80;;;;;;475690;250;28509;-76